Kenbridge, Virginia
Current Conditions -  °F | °C
As of 11:55 PM on Wednesday 22 Oct 2014 (Local Time) from KW31 Reporting Station
Clear Clear  
Wind Chill: 47°   Ceiling: Unl
Heat Index: 49°   Visibility: 10mi
Dew Point: 44°   Wind: 6mph
Humidity: 82%   Direction: 310°NW
Pressure: 29.99"   Gusts: NA
Location:  36.96°N, 78.13°W
Report Text: KW31 230355Z AUTO 31005KT 10SM CLR 10/07 A2999 RMK AO1 T00950066
Loading
Personal Weather Stations






























Interactive Weather Map
Tropical Storm Tracking
New forecast layout! Learn more

10-Day Weather Forecast

Advertisements
Track Severe Weather on mobile